<?xml version="1.0" encoding="UTF-8" standalone="no" ?>
<gpx xmlns="http://www.topografix.com/GPX/1/1" xmlns:xsi="http://www.w3.org/2001/XMLSchema-instance" xsi:schemaLocation="http://www.topografix.com/GPX/1/1 http://www.topografix.com/GPX/1/1/gpx.xsd" version="1.1" creator="VisuGPX - https://www.visugpx.com">
  <metadata>
    <name>Faisart_APE2024_2km-40D+</name>
  </metadata>
  <trk>
    <name><![CDATA[Faisart_APE2024_2km-40D+]]></name>
    <extensions>
      <line xmlns="http://www.topografix.com/GPX/gpx_style/0/2">
        <color>0000FF</color>
        <width>4</width>
      </line>
    </extensions>
    <trkseg>
      <trkpt lat="45.89501" lon="2.88424">
        <ele>847</ele>
        <time>2024-05-01T18:56:21.000Z</time>
      </trkpt>
      <trkpt lat="45.89501" lon="2.88424">
        <ele>846.71</ele>
        <time>2024-05-01T18:56:21.000Z</time>
      </trkpt>
      <trkpt lat="45.89525" lon="2.88452">
        <ele>847.54</ele>
        <time>2024-05-01T18:56:21.041Z</time>
      </trkpt>
      <trkpt lat="45.89534" lon="2.88435">
        <ele>847.47</ele>
        <time>2024-05-01T18:56:21.103Z</time>
      </trkpt>
      <trkpt lat="45.89583" lon="2.8835">
        <ele>846.5</ele>
        <time>2024-05-01T18:56:21.267Z</time>
      </trkpt>
      <trkpt lat="45.89597" lon="2.88333">
        <ele>845.97</ele>
        <time>2024-05-01T18:56:21.455Z</time>
      </trkpt>
      <trkpt lat="45.89604" lon="2.88318">
        <ele>845.39</ele>
        <time>2024-05-01T18:56:21.660Z</time>
      </trkpt>
      <trkpt lat="45.89604" lon="2.88318">
        <ele>845.39</ele>
        <time>2024-05-01T18:56:21.865Z</time>
      </trkpt>
      <trkpt lat="45.89604" lon="2.88318">
        <ele>845.39</ele>
        <time>2024-05-01T18:56:22.070Z</time>
      </trkpt>
      <trkpt lat="45.89636" lon="2.88346">
        <ele>847.34</ele>
        <time>2024-05-01T18:56:22.326Z</time>
      </trkpt>
      <trkpt lat="45.89647" lon="2.88358">
        <ele>848.77</ele>
        <time>2024-05-01T18:56:22.600Z</time>
      </trkpt>
      <trkpt lat="45.89658" lon="2.88379">
        <ele>850.6</ele>
        <time>2024-05-01T18:56:22.898Z</time>
      </trkpt>
      <trkpt lat="45.8966" lon="2.8839">
        <ele>852.22</ele>
        <time>2024-05-01T18:56:23.207Z</time>
      </trkpt>
      <trkpt lat="45.8966" lon="2.88404">
        <ele>853.8</ele>
        <time>2024-05-01T18:56:23.529Z</time>
      </trkpt>
      <trkpt lat="45.8966" lon="2.88404">
        <ele>853.52</ele>
        <time>2024-05-01T18:56:23.851Z</time>
      </trkpt>
      <trkpt lat="45.89683" lon="2.88432">
        <ele>858.49</ele>
        <time>2024-05-01T18:56:24.213Z</time>
      </trkpt>
      <trkpt lat="45.89704" lon="2.88464">
        <ele>862.55</ele>
        <time>2024-05-01T18:56:24.616Z</time>
      </trkpt>
      <trkpt lat="45.89719" lon="2.885">
        <ele>866.86</ele>
        <time>2024-05-01T18:56:25.058Z</time>
      </trkpt>
      <trkpt lat="45.89727" lon="2.88553">
        <ele>872.36</ele>
        <time>2024-05-01T18:56:25.550Z</time>
      </trkpt>
      <trkpt lat="45.89722" lon="2.88607">
        <ele>874.74</ele>
        <time>2024-05-01T18:56:26.093Z</time>
      </trkpt>
      <trkpt lat="45.89706" lon="2.88651">
        <ele>874.9</ele>
        <time>2024-05-01T18:56:26.683Z</time>
      </trkpt>
      <trkpt lat="45.89694" lon="2.88667">
        <ele>874.55</ele>
        <time>2024-05-01T18:56:27.295Z</time>
      </trkpt>
      <trkpt lat="45.89684" lon="2.88652">
        <ele>876.31</ele>
        <time>2024-05-01T18:56:27.926Z</time>
      </trkpt>
      <trkpt lat="45.89669" lon="2.88659">
        <ele>875.97</ele>
        <time>2024-05-01T18:56:28.579Z</time>
      </trkpt>
      <trkpt lat="45.89664" lon="2.88662">
        <ele>875.64</ele>
        <time>2024-05-01T18:56:29.238Z</time>
      </trkpt>
      <trkpt lat="45.89664" lon="2.88662">
        <ele>875.87</ele>
        <time>2024-05-01T18:56:29.897Z</time>
      </trkpt>
      <trkpt lat="45.89662" lon="2.88653">
        <ele>876.19</ele>
        <time>2024-05-01T18:56:30.565Z</time>
      </trkpt>
      <trkpt lat="45.89664" lon="2.88644">
        <ele>876.45</ele>
        <time>2024-05-01T18:56:31.241Z</time>
      </trkpt>
      <trkpt lat="45.89663" lon="2.88629">
        <ele>876.64</ele>
        <time>2024-05-01T18:56:31.931Z</time>
      </trkpt>
      <trkpt lat="45.89662" lon="2.88616">
        <ele>876.79</ele>
        <time>2024-05-01T18:56:32.634Z</time>
      </trkpt>
      <trkpt lat="45.89662" lon="2.88616">
        <ele>876.86</ele>
        <time>2024-05-01T18:56:33.337Z</time>
      </trkpt>
      <trkpt lat="45.89662" lon="2.88616">
        <ele>876.72</ele>
        <time>2024-05-01T18:56:34.040Z</time>
      </trkpt>
      <trkpt lat="45.89658" lon="2.88605">
        <ele>876.35</ele>
        <time>2024-05-01T18:56:34.755Z</time>
      </trkpt>
      <trkpt lat="45.89656" lon="2.88592">
        <ele>875.9</ele>
        <time>2024-05-01T18:56:35.482Z</time>
      </trkpt>
      <trkpt lat="45.89657" lon="2.88562">
        <ele>874.97</ele>
        <time>2024-05-01T18:56:36.237Z</time>
      </trkpt>
      <trkpt lat="45.89659" lon="2.88545">
        <ele>874.25</ele>
        <time>2024-05-01T18:56:37.008Z</time>
      </trkpt>
      <trkpt lat="45.89659" lon="2.88545">
        <ele>874.71</ele>
        <time>2024-05-01T18:56:37.779Z</time>
      </trkpt>
      <trkpt lat="45.89657" lon="2.88562">
        <ele>875.52</ele>
        <time>2024-05-01T18:56:38.565Z</time>
      </trkpt>
      <trkpt lat="45.89656" lon="2.88592">
        <ele>876.27</ele>
        <time>2024-05-01T18:56:39.379Z</time>
      </trkpt>
      <trkpt lat="45.89658" lon="2.88605">
        <ele>876.6</ele>
        <time>2024-05-01T18:56:40.206Z</time>
      </trkpt>
      <trkpt lat="45.89662" lon="2.88616">
        <ele>876.78</ele>
        <time>2024-05-01T18:56:41.045Z</time>
      </trkpt>
      <trkpt lat="45.89663" lon="2.88629">
        <ele>876.71</ele>
        <time>2024-05-01T18:56:41.896Z</time>
      </trkpt>
      <trkpt lat="45.89664" lon="2.88644">
        <ele>876.48</ele>
        <time>2024-05-01T18:56:42.761Z</time>
      </trkpt>
      <trkpt lat="45.89662" lon="2.88653">
        <ele>876.09</ele>
        <time>2024-05-01T18:56:43.635Z</time>
      </trkpt>
      <trkpt lat="45.89666" lon="2.88669">
        <ele>875.48</ele>
        <time>2024-05-01T18:56:44.525Z</time>
      </trkpt>
      <trkpt lat="45.89662" lon="2.88678">
        <ele>874.83</ele>
        <time>2024-05-01T18:56:45.425Z</time>
      </trkpt>
      <trkpt lat="45.89646" lon="2.88682">
        <ele>874.1</ele>
        <time>2024-05-01T18:56:46.346Z</time>
      </trkpt>
      <trkpt lat="45.89646" lon="2.88682">
        <ele>873.47</ele>
        <time>2024-05-01T18:56:47.267Z</time>
      </trkpt>
      <trkpt lat="45.89645" lon="2.88682">
        <ele>873.29</ele>
        <time>2024-05-01T18:56:48.190Z</time>
      </trkpt>
      <trkpt lat="45.89642" lon="2.88687">
        <ele>872.98</ele>
        <time>2024-05-01T18:56:49.119Z</time>
      </trkpt>
      <trkpt lat="45.89641" lon="2.88695">
        <ele>872.66</ele>
        <time>2024-05-01T18:56:50.056Z</time>
      </trkpt>
      <trkpt lat="45.89638" lon="2.88732">
        <ele>872.27</ele>
        <time>2024-05-01T18:56:51.028Z</time>
      </trkpt>
      <trkpt lat="45.89638" lon="2.88732">
        <ele>872.11</ele>
        <time>2024-05-01T18:56:52.000Z</time>
      </trkpt>
      <trkpt lat="45.89645" lon="2.8874">
        <ele>871.51</ele>
        <time>2024-05-01T18:56:52.983Z</time>
      </trkpt>
      <trkpt lat="45.89663" lon="2.88746">
        <ele>871</ele>
        <time>2024-05-01T18:56:53.991Z</time>
      </trkpt>
      <trkpt lat="45.89655" lon="2.88757">
        <ele>870.88</ele>
        <time>2024-05-01T18:56:55.013Z</time>
      </trkpt>
      <trkpt lat="45.89655" lon="2.88757">
        <ele>870.78</ele>
        <time>2024-05-01T18:56:56.036Z</time>
      </trkpt>
      <trkpt lat="45.8962" lon="2.8881">
        <ele>870.08</ele>
        <time>2024-05-01T18:56:57.127Z</time>
      </trkpt>
      <trkpt lat="45.89619" lon="2.88806">
        <ele>869.94</ele>
        <time>2024-05-01T18:56:58.223Z</time>
      </trkpt>
      <trkpt lat="45.89612" lon="2.88811">
        <ele>869.6</ele>
        <time>2024-05-01T18:56:59.329Z</time>
      </trkpt>
      <trkpt lat="45.89609" lon="2.88797">
        <ele>869.63</ele>
        <time>2024-05-01T18:57:00.448Z</time>
      </trkpt>
      <trkpt lat="45.89604" lon="2.8879">
        <ele>869.52</ele>
        <time>2024-05-01T18:57:01.577Z</time>
      </trkpt>
      <trkpt lat="45.89599" lon="2.88789">
        <ele>869.37</ele>
        <time>2024-05-01T18:57:02.713Z</time>
      </trkpt>
      <trkpt lat="45.89599" lon="2.88789">
        <ele>869.12</ele>
        <time>2024-05-01T18:57:03.849Z</time>
      </trkpt>
      <trkpt lat="45.89593" lon="2.88791">
        <ele>868.85</ele>
        <time>2024-05-01T18:57:04.992Z</time>
      </trkpt>
      <trkpt lat="45.89595" lon="2.88792">
        <ele>868.76</ele>
        <time>2024-05-01T18:57:06.137Z</time>
      </trkpt>
      <trkpt lat="45.89595" lon="2.88792">
        <ele>868.77</ele>
        <time>2024-05-01T18:57:07.282Z</time>
      </trkpt>
      <trkpt lat="45.89579" lon="2.88798">
        <ele>867.46</ele>
        <time>2024-05-01T18:57:08.448Z</time>
      </trkpt>
      <trkpt lat="45.89579" lon="2.88798">
        <ele>867.46</ele>
        <time>2024-05-01T18:57:09.614Z</time>
      </trkpt>
      <trkpt lat="45.89557" lon="2.88807">
        <ele>865.66</ele>
        <time>2024-05-01T18:57:10.811Z</time>
      </trkpt>
      <trkpt lat="45.89518" lon="2.8879">
        <ele>864.92</ele>
        <time>2024-05-01T18:57:12.062Z</time>
      </trkpt>
      <trkpt lat="45.89503" lon="2.88773">
        <ele>864.27</ele>
        <time>2024-05-01T18:57:13.339Z</time>
      </trkpt>
      <trkpt lat="45.89482" lon="2.88754">
        <ele>863.43</ele>
        <time>2024-05-01T18:57:14.650Z</time>
      </trkpt>
      <trkpt lat="45.8947" lon="2.88741">
        <ele>862.27</ele>
        <time>2024-05-01T18:57:15.981Z</time>
      </trkpt>
      <trkpt lat="45.89461" lon="2.88736">
        <ele>860.98</ele>
        <time>2024-05-01T18:57:17.324Z</time>
      </trkpt>
      <trkpt lat="45.89444" lon="2.88739">
        <ele>859.28</ele>
        <time>2024-05-01T18:57:18.690Z</time>
      </trkpt>
      <trkpt lat="45.89423" lon="2.88741">
        <ele>857.44</ele>
        <time>2024-05-01T18:57:20.085Z</time>
      </trkpt>
      <trkpt lat="45.894" lon="2.88728">
        <ele>855.85</ele>
        <time>2024-05-01T18:57:21.512Z</time>
      </trkpt>
      <trkpt lat="45.89374" lon="2.88718">
        <ele>854.47</ele>
        <time>2024-05-01T18:57:22.975Z</time>
      </trkpt>
      <trkpt lat="45.89374" lon="2.88718">
        <ele>854.59</ele>
        <time>2024-05-01T18:57:24.438Z</time>
      </trkpt>
      <trkpt lat="45.89374" lon="2.88718">
        <ele>854.59</ele>
        <time>2024-05-01T18:57:25.901Z</time>
      </trkpt>
      <trkpt lat="45.89374" lon="2.88718">
        <ele>855</ele>
        <time>2024-05-01T18:57:27.364Z</time>
      </trkpt>
      <trkpt lat="45.89374" lon="2.88717">
        <ele>855</ele>
        <time>2024-05-01T18:57:28.827Z</time>
      </trkpt>
      <trkpt lat="45.89374" lon="2.88717">
        <ele>854</ele>
        <time>2024-05-01T18:57:30.290Z</time>
      </trkpt>
      <trkpt lat="45.89374" lon="2.88717">
        <ele>855</ele>
        <time>2024-05-01T18:57:31.753Z</time>
      </trkpt>
      <trkpt lat="45.89374" lon="2.88717">
        <ele>854.97</ele>
        <time>2024-05-01T18:57:33.217Z</time>
      </trkpt>
      <trkpt lat="45.89355" lon="2.8871">
        <ele>853</ele>
        <time>2024-05-01T18:57:34.707Z</time>
      </trkpt>
      <trkpt lat="45.89337" lon="2.88697">
        <ele>852</ele>
        <time>2024-05-01T18:57:36.224Z</time>
      </trkpt>
      <trkpt lat="45.89337" lon="2.88697">
        <ele>852</ele>
        <time>2024-05-01T18:57:37.741Z</time>
      </trkpt>
      <trkpt lat="45.89319" lon="2.88684">
        <ele>851</ele>
        <time>2024-05-01T18:57:39.285Z</time>
      </trkpt>
      <trkpt lat="45.89296" lon="2.88673">
        <ele>851</ele>
        <time>2024-05-01T18:57:40.861Z</time>
      </trkpt>
      <trkpt lat="45.89279" lon="2.8867">
        <ele>850</ele>
        <time>2024-05-01T18:57:42.460Z</time>
      </trkpt>
      <trkpt lat="45.89263" lon="2.88663">
        <ele>850</ele>
        <time>2024-05-01T18:57:44.081Z</time>
      </trkpt>
      <trkpt lat="45.89217" lon="2.88657">
        <ele>849</ele>
        <time>2024-05-01T18:57:45.764Z</time>
      </trkpt>
      <trkpt lat="45.8921" lon="2.88653">
        <ele>849</ele>
        <time>2024-05-01T18:57:47.456Z</time>
      </trkpt>
      <trkpt lat="45.89203" lon="2.8865">
        <ele>849</ele>
        <time>2024-05-01T18:57:49.158Z</time>
      </trkpt>
      <trkpt lat="45.89203" lon="2.88649">
        <ele>849</ele>
        <time>2024-05-01T18:57:50.860Z</time>
      </trkpt>
      <trkpt lat="45.89203" lon="2.88649">
        <ele>849</ele>
        <time>2024-05-01T18:57:52.562Z</time>
      </trkpt>
      <trkpt lat="45.89203" lon="2.88649">
        <ele>848</ele>
        <time>2024-05-01T18:57:54.264Z</time>
      </trkpt>
      <trkpt lat="45.89203" lon="2.88649">
        <ele>848</ele>
        <time>2024-05-01T18:57:55.967Z</time>
      </trkpt>
      <trkpt lat="45.892" lon="2.88648">
        <ele>848</ele>
        <time>2024-05-01T18:57:57.675Z</time>
      </trkpt>
      <trkpt lat="45.89199" lon="2.88621">
        <ele>848</ele>
        <time>2024-05-01T18:57:59.408Z</time>
      </trkpt>
      <trkpt lat="45.89186" lon="2.88561">
        <ele>848</ele>
        <time>2024-05-01T18:58:01.199Z</time>
      </trkpt>
      <trkpt lat="45.89182" lon="2.88535">
        <ele>847</ele>
        <time>2024-05-01T18:58:03.015Z</time>
      </trkpt>
      <trkpt lat="45.89186" lon="2.88489">
        <ele>847</ele>
        <time>2024-05-01T18:58:04.874Z</time>
      </trkpt>
      <trkpt lat="45.89185" lon="2.88469">
        <ele>847</ele>
        <time>2024-05-01T18:58:06.751Z</time>
      </trkpt>
      <trkpt lat="45.89232" lon="2.8846">
        <ele>846</ele>
        <time>2024-05-01T18:58:08.691Z</time>
      </trkpt>
      <trkpt lat="45.89251" lon="2.8845">
        <ele>846</ele>
        <time>2024-05-01T18:58:10.659Z</time>
      </trkpt>
      <trkpt lat="45.8927" lon="2.88437">
        <ele>846</ele>
        <time>2024-05-01T18:58:12.655Z</time>
      </trkpt>
      <trkpt lat="45.893" lon="2.88414">
        <ele>846</ele>
        <time>2024-05-01T18:58:14.696Z</time>
      </trkpt>
      <trkpt lat="45.893" lon="2.88414">
        <ele>846</ele>
        <time>2024-05-01T18:58:16.737Z</time>
      </trkpt>
      <trkpt lat="45.893" lon="2.88414">
        <ele>843.92</ele>
        <time>2024-05-01T18:58:18.778Z</time>
      </trkpt>
      <trkpt lat="45.89301" lon="2.88414">
        <ele>843.93</ele>
        <time>2024-05-01T18:58:20.820Z</time>
      </trkpt>
      <trkpt lat="45.89304" lon="2.88412">
        <ele>844.09</ele>
        <time>2024-05-01T18:58:22.867Z</time>
      </trkpt>
      <trkpt lat="45.89295" lon="2.88399">
        <ele>844.31</ele>
        <time>2024-05-01T18:58:24.930Z</time>
      </trkpt>
      <trkpt lat="45.89293" lon="2.88374">
        <ele>844.82</ele>
        <time>2024-05-01T18:58:27.016Z</time>
      </trkpt>
      <trkpt lat="45.89295" lon="2.88334">
        <ele>845.28</ele>
        <time>2024-05-01T18:58:29.139Z</time>
      </trkpt>
      <trkpt lat="45.89295" lon="2.88334">
        <ele>845.29</ele>
        <time>2024-05-01T18:58:31.262Z</time>
      </trkpt>
      <trkpt lat="45.89295" lon="2.88335">
        <ele>845.27</ele>
        <time>2024-05-01T18:58:33.386Z</time>
      </trkpt>
      <trkpt lat="45.89293" lon="2.88374">
        <ele>844.07</ele>
        <time>2024-05-01T18:58:35.546Z</time>
      </trkpt>
      <trkpt lat="45.89295" lon="2.88399">
        <ele>843.33</ele>
        <time>2024-05-01T18:58:37.729Z</time>
      </trkpt>
      <trkpt lat="45.89304" lon="2.88412">
        <ele>842.76</ele>
        <time>2024-05-01T18:58:39.929Z</time>
      </trkpt>
      <trkpt lat="45.89415" lon="2.88378">
        <ele>841.65</ele>
        <time>2024-05-01T18:58:42.281Z</time>
      </trkpt>
      <trkpt lat="45.89433" lon="2.88377">
        <ele>841.26</ele>
        <time>2024-05-01T18:58:44.657Z</time>
      </trkpt>
      <trkpt lat="45.89453" lon="2.88382">
        <ele>841.38</ele>
        <time>2024-05-01T18:58:47.059Z</time>
      </trkpt>
      <trkpt lat="45.89467" lon="2.88389">
        <ele>841.8</ele>
        <time>2024-05-01T18:58:49.481Z</time>
      </trkpt>
      <trkpt lat="45.8948" lon="2.884">
        <ele>842.43</ele>
        <time>2024-05-01T18:58:51.923Z</time>
      </trkpt>
      <trkpt lat="45.8949" lon="2.88412">
        <ele>843.24</ele>
        <time>2024-05-01T18:58:54.383Z</time>
      </trkpt>
      <trkpt lat="45.89497" lon="2.88419">
        <ele>843.92</ele>
        <time>2024-05-01T18:58:56.854Z</time>
      </trkpt>
    </trkseg>
  </trk>
</gpx>